Nossa Senhora do Livramento, Brazil
Current Conditions -  °F | °C
As of 8:00 PM on Wednesday 22 Oct 2014 (Local Time) from SBCY Reporting Station
Broken Clouds Broken Clouds  
Wind Chill: 77°   Ceiling: 10000
Heat Index: 78°   Visibility: 6mi
Dew Point: 72°   Wind: 9mph
Humidity: 83%   Direction: 330°NNW
Pressure: 29.85"   Gusts: NA
Location:  15.78°S, 56.35°W
Report Text: SBCY 222300Z 33008KT 9999 FEW020 BKN100 25/22 Q1011
Loading
Personal Weather Stations






























Interactive Weather Map
Tropical Storm Tracking
New forecast layout! Learn more

10-Day Weather Forecast

Advertisements
Track Severe Weather on mobile